Time;durP1;ratioP1;P1;durP2;ratioP2;P2;SDS_P1;SDS_P2;PMS_P1;PMS_P2;Temp;Humidity;BMP_temperature;BMP_pressure;BME280_temperature;BME280_humidity;BME280_pressure;Samples;Min_cycle;Max_cycle;Signal;HPM_P1;HPM_P2
2022/11/29 00:01:03;;;;;;;12.60;11.30;;;;;;;;;;4973417;28;20319;-83
2022/11/29 00:03:28;;;;;;;11.00;10.00;;;;;;;;;;4964079;28;20221;-83
2022/11/29 00:05:56;;;;;;;11.70;10.50;;;;;;;;;;5012164;28;20232;-83
2022/11/29 00:08:22;;;;;;;11.50;10.23;;;;;;;;;;4995604;28;20268;-83
2022/11/29 00:10:48;;;;;;;12.17;11.07;;;;;;;;;;5012087;28;20604;-83
2022/11/29 00:13:14;;;;;;;12.40;9.73;;;;;;;;;;4980633;28;20229;-83
2022/11/29 00:15:39;;;;;;;10.77;9.77;;;;;;;;;;4978217;28;20232;-82
2022/11/29 00:18:05;;;;;;;11.43;10.23;;;;;;;;;;4994054;28;20279;-83
2022/11/29 00:20:31;;;;;;;10.73;9.73;;;;;;;;;;4994141;28;20275;-83
2022/11/29 00:22:56;;;;;;;11.87;10.50;;;;;;;;;;4993606;28;20308;-81
2022/11/29 00:25:22;;;;;;;11.43;10.33;;;;;;;;;;4998212;28;20225;-81
2022/11/29 00:27:49;;;;;;;11.13;10.13;;;;;;;;;;4982572;28;20256;-82
2022/11/29 00:30:15;;;;;;;11.00;9.90;;;;;;;;;;4959231;28;20230;-82
2022/11/29 00:32:40;;;;;;;11.17;10.07;;;;;;;;;;4974714;28;20226;-81
2022/11/29 00:35:08;;;;;;;11.67;10.57;;;;;;;;;;4990246;28;20606;-81
2022/11/29 00:37:33;;;;;;;11.53;10.43;;;;;;;;;;4971135;28;20229;-82
2022/11/29 00:39:59;;;;;;;10.90;9.87;;;;;;;;;;5007396;28;20237;-81
2022/11/29 00:42:24;;;;;;;10.43;9.40;;;;;;;;;;4981907;28;20224;-82
2022/11/29 00:44:50;;;;;;;10.97;9.97;;;;;;;;;;4986872;28;20229;-81
2022/11/29 00:47:16;;;;;;;11.33;10.30;;;;;;;;;;4990405;28;20340;-82
2022/11/29 00:49:43;;;;;;;11.93;10.67;;;;;;;;;;4990863;28;20236;-83
2022/11/29 00:52:12;;;;;;;11.50;10.30;;;;;;;;;;4982983;28;20271;-82
2022/11/29 00:54:37;;;;;;;11.83;10.20;;;;;;;;;;4974655;28;20722;-81
2022/11/29 00:57:05;;;;;;;13.03;10.63;;;;;;;;;;4983612;28;20233;-82
2022/11/29 00:59:31;;;;;;;11.23;10.13;;;;;;;;;;4991384;28;20222;-81
2022/11/29 01:01:56;;;;;;;10.73;9.80;;;;;;;;;;4978373;28;20225;-82
2022/11/29 01:04:22;;;;;;;10.67;9.70;;;;;;;;;;4962241;28;20233;-82
2022/11/29 01:06:51;;;;;;;11.07;10.00;;;;;;;;;;4999386;28;20364;-82
2022/11/29 01:09:16;;;;;;;10.67;9.77;;;;;;;;;;4994685;28;20252;-82
2022/11/29 01:11:42;;;;;;;11.07;10.07;;;;;;;;;;4984056;28;20694;-84
2022/11/29 01:14:09;;;;;;;11.83;10.73;;;;;;;;;;4965116;28;20234;-83
2022/11/29 01:16:39;;;;;;;11.90;10.57;;;;;;;;;;4966239;28;20312;-83
2022/11/29 01:19:06;;;;;;;11.67;10.53;;;;;;;;;;4998142;28;20230;-83
2022/11/29 01:21:36;;;;;;;12.53;11.33;;;;;;;;;;5014928;28;20240;-82
2022/11/29 01:24:02;;;;;;;11.83;10.70;;;;;;;;;;5016168;28;20221;-84
2022/11/29 01:26:30;;;;;;;13.47;10.80;;;;;;;;;;4981590;28;20228;-83
2022/11/29 01:28:58;;;;;;;12.57;11.33;;;;;;;;;;4965911;28;20233;-81
2022/11/29 01:31:26;;;;;;;13.57;11.17;;;;;;;;;;4979410;28;20309;-82
2022/11/29 01:33:54;;;;;;;11.87;10.67;;;;;;;;;;5013534;28;20252;-83
2022/11/29 01:36:22;;;;;;;11.67;10.57;;;;;;;;;;4964549;28;20229;-82
2022/11/29 01:38:50;;;;;;;12.27;11.07;;;;;;;;;;4962231;28;20248;-82
2022/11/29 01:41:20;;;;;;;12.13;11.03;;;;;;;;;;4963992;28;20226;-83
2022/11/29 01:44:03;;;;;;;11.77;10.77;;;;;;;;;;4978159;28;20225;-84
2022/11/29 01:46:34;;;;;;;11.70;10.60;;;;;;;;;;4998360;28;20233;-82
2022/11/29 01:49:04;;;;;;;12.17;10.80;;;;;;;;;;4981961;28;20230;-84
2022/11/29 01:51:31;;;;;;;12.53;11.27;;;;;;;;;;4998605;28;20240;-83
2022/11/29 01:53:57;;;;;;;12.20;11.00;;;;;;;;;;4971049;28;20229;-85
2022/11/29 01:56:23;;;;;;;12.37;11.00;;;;;;;;;;4985773;28;20283;-83
2022/11/29 01:58:48;;;;;;;12.33;11.07;;;;;;;;;;4983970;28;20233;-85
2022/11/29 02:01:14;;;;;;;12.17;10.97;;;;;;;;;;4981834;28;20212;-84
2022/11/29 02:03:39;;;;;;;12.20;11.00;;;;;;;;;;4963288;28;20570;-85
2022/11/29 02:06:05;;;;;;;12.83;11.63;;;;;;;;;;4961378;28;20229;-88
2022/11/29 02:08:35;;;;;;;12.60;11.30;;;;;;;;;;4963931;28;20233;-83
2022/11/29 02:11:19;;;;;;;12.33;11.23;;;;;;;;;;4986458;28;20241;-86
2022/11/29 02:13:48;;;;;;;12.80;11.63;;;;;;;;;;4992890;28;20561;-87
2022/11/29 02:16:26;;;;;;;12.83;11.57;;;;;;;;;;4994224;28;20225;-83
2022/11/29 02:19:17;;;;;;;13.50;11.00;;;;;;;;;;4999580;28;20217;-83
2022/11/29 02:21:45;;;;;;;12.40;11.27;;;;;;;;;;4967715;28;20252;-83
2022/11/29 02:24:46;;;;;;;13.17;11.97;;;;;;;;;;5016734;28;20296;-82
2022/11/29 02:27:16;;;;;;;13.63;12.27;;;;;;;;;;4998779;28;20725;-83
2022/11/29 02:30:19;;;;;;;13.60;11.57;;;;;;;;;;5020767;28;20312;-82
2022/11/29 02:32:47;;;;;;;13.47;12.07;;;;;;;;;;4995320;28;20233;-85
2022/11/29 02:35:16;;;;;;;13.70;12.43;;;;;;;;;;4991176;28;20227;-82
2022/11/29 02:37:56;;;;;;;12.90;11.70;;;;;;;;;;5004200;28;20284;-85
2022/11/29 02:40:37;;;;;;;14.00;12.47;;;;;;;;;;4994559;28;20260;-83
2022/11/29 02:43:18;;;;;;;13.67;12.27;;;;;;;;;;5000006;28;20249;-84
2022/11/29 02:45:55;;;;;;;13.03;11.83;;;;;;;;;;4983437;28;20218;-82
2022/11/29 02:48:57;;;;;;;14.57;12.93;;;;;;;;;;5006642;28;20237;-82
2022/11/29 02:51:25;;;;;;;13.27;11.97;;;;;;;;;;4999914;28;20225;-83
2022/11/29 02:54:28;;;;;;;15.33;13.73;;;;;;;;;;5020242;28;20244;-83
2022/11/29 02:57:08;;;;;;;13.87;12.47;;;;;;;;;;4991337;28;20287;-82
2022/11/29 02:59:49;;;;;;;13.70;12.30;;;;;;;;;;4979762;28;20229;-84
2022/11/29 03:02:43;;;;;;;14.00;12.77;;;;;;;;;;5009282;28;20295;-88
2022/11/29 03:05:35;;;;;;;14.80;13.40;;;;;;;;;;4987550;28;20232;-87
2022/11/29 03:08:16;;;;;;;15.40;13.83;;;;;;;;;;5028060;28;20229;-83
2022/11/29 03:11:17;;;;;;;14.83;13.27;;;;;;;;;;4987632;28;20288;-82
2022/11/29 03:14:08;;;;;;;13.80;12.43;;;;;;;;;;4995394;28;20241;-83
2022/11/29 03:16:54;;;;;;;13.97;12.70;;;;;;;;;;4975385;28;20222;-84
2022/11/29 03:19:33;;;;;;;14.27;12.93;;;;;;;;;;4971482;28;20232;-82
2022/11/29 03:22:08;;;;;;;16.97;13.33;;;;;;;;;;4979894;28;20255;-83
2022/11/29 03:25:06;;;;;;;13.83;12.40;;;;;;;;;;4991931;28;20231;-83
2022/11/29 03:27:35;;;;;;;15.13;13.63;;;;;;;;;;4990534;28;20226;-83
2022/11/29 03:30:04;;;;;;;16.10;14.60;;;;;;;;;;5005456;28;20241;-81
2022/11/29 03:32:46;;;;;;;14.63;13.20;;;;;;;;;;4973581;28;20751;-82
2022/11/29 03:35:22;;;;;;;15.07;13.57;;;;;;;;;;4990978;28;20283;-80
2022/11/29 03:38:02;;;;;;;14.60;13.20;;;;;;;;;;5005171;28;20321;-83
2022/11/29 03:41:00;;;;;;;16.00;14.37;;;;;;;;;;4974348;28;20220;-83
2022/11/29 03:43:39;;;;;;;15.60;14.03;;;;;;;;;;4956323;28;20224;-84
2022/11/29 03:46:11;;;;;;;15.30;13.80;;;;;;;;;;5016234;28;20228;-83
2022/11/29 03:48:51;;;;;;;17.00;15.30;;;;;;;;;;4977247;28;20288;-83
2022/11/29 03:51:33;;;;;;;15.80;14.40;;;;;;;;;;4969195;28;20218;-81
2022/11/29 03:54:02;;;;;;;16.23;14.73;;;;;;;;;;4972374;28;20312;-85
2022/11/29 03:56:29;;;;;;;16.40;14.70;;;;;;;;;;4973243;28;20235;-85
2022/11/29 03:59:03;;;;;;;17.27;15.47;;;;;;;;;;4973746;28;20225;-83
2022/11/29 04:01:53;;;;;;;18.40;15.13;;;;;;;;;;4996667;28;20256;-81
2022/11/29 04:04:39;;;;;;;16.57;14.67;;;;;;;;;;4996295;28;20221;-81
2022/11/29 04:07:31;;;;;;;15.97;14.40;;;;;;;;;;5003060;28;20229;-83
2022/11/29 04:10:17;;;;;;;18.10;15.27;;;;;;;;;;4987739;28;20241;-83
2022/11/29 04:13:02;;;;;;;17.27;15.40;;;;;;;;;;5009357;28;20233;-80
2022/11/29 04:15:41;;;;;;;19.03;15.73;;;;;;;;;;4991318;28;20272;-81
2022/11/29 04:18:21;;;;;;;17.83;16.10;;;;;;;;;;5012350;28;20213;-83
2022/11/29 04:21:06;;;;;;;16.80;15.07;;;;;;;;;;5001376;28;20228;-80
2022/11/29 04:23:56;;;;;;;18.07;15.70;;;;;;;;;;5011717;28;20217;-81
2022/11/29 04:26:26;;;;;;;18.33;16.43;;;;;;;;;;5011420;28;20221;-81
2022/11/29 04:28:57;;;;;;;19.67;17.27;;;;;;;;;;5015105;28;20213;-81
2022/11/29 04:31:32;;;;;;;18.80;16.80;;;;;;;;;;5013904;28;20237;-81
2022/11/29 04:34:24;;;;;;;19.53;17.63;;;;;;;;;;4995766;28;20279;-80
2022/11/29 04:37:01;;;;;;;20.47;18.43;;;;;;;;;;4998814;28;20231;-79
2022/11/29 04:39:45;;;;;;;20.20;18.20;;;;;;;;;;5011651;28;20241;-80
2022/11/29 04:42:39;;;;;;;20.87;18.50;;;;;;;;;;5012534;28;20216;-82
2022/11/29 04:45:17;;;;;;;20.53;18.43;;;;;;;;;;5013601;28;20229;-80
2022/11/29 04:48:01;;;;;;;21.10;18.57;;;;;;;;;;5016102;28;20325;-81
2022/11/29 04:50:34;;;;;;;20.40;18.30;;;;;;;;;;5029178;28;20209;-82
2022/11/29 04:53:21;;;;;;;20.33;18.13;;;;;;;;;;5006727;28;20225;-80
2022/11/29 04:56:03;;;;;;;21.77;19.43;;;;;;;;;;5016241;28;20301;-81
2022/11/29 04:58:52;;;;;;;22.53;20.23;;;;;;;;;;5030816;28;20232;-82
2022/11/29 05:01:54;;;;;;;23.00;19.80;;;;;;;;;;4964501;28;20254;-82
2022/11/29 05:04:26;;;;;;;20.97;18.33;;;;;;;;;;5016149;28;20217;-81
2022/11/29 05:07:01;;;;;;;21.97;19.67;;;;;;;;;;5016007;28;20253;-80
2022/11/29 05:10:00;;;;;;;22.33;19.93;;;;;;;;;;4999242;28;20300;-80
2022/11/29 05:12:40;;;;;;;23.40;20.70;;;;;;;;;;5014503;28;20215;-81
2022/11/29 05:15:15;;;;;;;23.00;20.30;;;;;;;;;;4998397;28;20253;-82
2022/11/29 05:17:49;;;;;;;22.83;20.57;;;;;;;;;;5015941;28;20228;-80
2022/11/29 05:20:35;;;;;;;22.43;20.13;;;;;;;;;;5031507;28;20242;-84
2022/11/29 05:23:45;;;;;;;24.17;21.57;;;;;;;;;;5015616;28;20233;-81
2022/11/29 05:26:18;;;;;;;24.30;21.80;;;;;;;;;;4986107;28;20225;-80
2022/11/29 05:29:01;;;;;;;24.23;21.70;;;;;;;;;;4965193;28;20236;-81
2022/11/29 05:31:55;;;;;;;27.50;21.47;;;;;;;;;;5012611;28;20237;-81
2022/11/29 05:34:30;;;;;;;24.37;21.87;;;;;;;;;;4943994;28;20236;-80
2022/11/29 05:37:01;;;;;;;23.83;21.37;;;;;;;;;;5014516;28;20225;-82
2022/11/29 05:39:29;;;;;;;31.47;22.90;;;;;;;;;;5013150;28;20308;-80
2022/11/29 05:42:10;;;;;;;24.90;22.27;;;;;;;;;;4997911;28;20214;-80
2022/11/29 05:44:57;;;;;;;24.53;21.97;;;;;;;;;;4955701;28;20216;-80
2022/11/29 05:47:27;;;;;;;25.40;22.40;;;;;;;;;;4995668;28;20264;-85
2022/11/29 05:50:01;;;;;;;26.40;22.37;;;;;;;;;;5001728;28;20225;-84
2022/11/29 05:52:44;;;;;;;25.27;21.57;;;;;;;;;;4988264;28;20241;-84
2022/11/29 05:55:39;;;;;;;23.77;21.07;;;;;;;;;;4985709;28;20292;-84
2022/11/29 05:58:18;;;;;;;24.73;22.07;;;;;;;;;;5004038;28;20281;-84
2022/11/29 06:00:55;;;;;;;24.93;21.83;;;;;;;;;;5014297;28;20232;-84
2022/11/29 06:03:32;;;;;;;24.40;21.30;;;;;;;;;;5005705;28;20225;-83
2022/11/29 06:06:00;;;;;;;24.07;21.57;;;;;;;;;;4977307;28;20244;-84
2022/11/29 06:08:57;;;;;;;25.77;22.53;;;;;;;;;;4985590;28;20226;-84
2022/11/29 06:11:32;;;;;;;23.20;20.67;;;;;;;;;;5018073;28;20237;-84
2022/11/29 06:14:01;;;;;;;24.30;21.67;;;;;;;;;;4987471;28;20236;-85
2022/11/29 06:16:50;;;;;;;26.57;23.13;;;;;;;;;;4989152;28;20225;-84
2022/11/29 06:19:58;;;;;;;24.90;22.20;;;;;;;;;;4985997;28;20247;-85
2022/11/29 06:22:37;;;;;;;24.40;21.80;;;;;;;;;;4970242;28;20240;-84
2022/11/29 06:25:11;;;;;;;24.17;21.60;;;;;;;;;;4976230;28;20297;-85
2022/11/29 06:27:42;;;;;;;25.30;21.17;;;;;;;;;;4970315;28;20704;-85
2022/11/29 06:30:21;;;;;;;23.83;21.43;;;;;;;;;;5003021;28;20229;-83
2022/11/29 06:33:08;;;;;;;24.33;21.47;;;;;;;;;;4982004;28;20244;-85
2022/11/29 06:35:37;;;;;;;23.83;21.30;;;;;;;;;;4981487;28;20221;-83
2022/11/29 06:38:10;;;;;;;24.70;22.00;;;;;;;;;;4994867;28;20249;-84
2022/11/29 06:40:38;;;;;;;24.63;21.60;;;;;;;;;;4997621;28;20227;-83
2022/11/29 06:43:03;;;;;;;24.60;21.77;;;;;;;;;;4981607;28;20217;-86
2022/11/29 06:45:29;;;;;;;27.67;23.97;;;;;;;;;;4965294;28;20605;-85
2022/11/29 06:47:57;;;;;;;25.70;22.80;;;;;;;;;;5008726;28;20233;-84
2022/11/29 06:50:32;;;;;;;25.13;22.60;;;;;;;;;;5014614;28;20234;-83
2022/11/29 06:53:18;;;;;;;23.20;20.80;;;;;;;;;;5011869;28;20259;-85
2022/11/29 06:55:59;;;;;;;24.23;21.63;;;;;;;;;;5001259;28;20240;-86
2022/11/29 06:58:39;;;;;;;23.63;21.27;;;;;;;;;;4981799;28;20232;-85
2022/11/29 07:01:11;;;;;;;26.57;23.77;;;;;;;;;;4995074;28;20230;-84
2022/11/29 07:03:46;;;;;;;24.57;21.97;;;;;;;;;;4989677;28;20265;-85
2022/11/29 07:06:19;;;;;;;27.57;23.83;;;;;;;;;;4991111;28;20225;-85
2022/11/29 07:08:45;;;;;;;25.40;22.67;;;;;;;;;;5014022;28;20256;-82
2022/11/29 07:11:13;;;;;;;24.50;22.00;;;;;;;;;;4997958;28;20297;-82
2022/11/29 07:13:41;;;;;;;27.30;23.90;;;;;;;;;;4965221;28;20266;-83
2022/11/29 07:16:21;;;;;;;27.83;23.13;;;;;;;;;;5003492;28;20225;-83
2022/11/29 07:19:02;;;;;;;27.40;23.47;;;;;;;;;;4994809;28;20264;-83
2022/11/29 07:21:52;;;;;;;26.17;23.30;;;;;;;;;;4998131;28;20223;-84
2022/11/29 07:24:49;;;;;;;26.80;23.63;;;;;;;;;;5012429;28;20222;-85
2022/11/29 07:27:14;;;;;;;26.27;23.53;;;;;;;;;;4997707;28;20233;-84
2022/11/29 07:29:49;;;;;;;24.37;21.57;;;;;;;;;;5000648;28;20224;-83
2022/11/29 07:32:21;;;;;;;24.97;22.33;;;;;;;;;;4980528;28;20236;-84
2022/11/29 07:35:10;;;;;;;24.93;22.33;;;;;;;;;;4998272;28;20600;-84
2022/11/29 07:37:57;;;;;;;25.30;22.60;;;;;;;;;;4997385;28;20224;-84
2022/11/29 07:40:28;;;;;;;26.30;23.37;;;;;;;;;;5000331;28;20233;-83
2022/11/29 07:43:00;;;;;;;26.80;22.97;;;;;;;;;;4997337;28;20753;-82
2022/11/29 07:45:48;;;;;;;25.77;22.97;;;;;;;;;;4974528;28;20706;-84
2022/11/29 07:48:14;;;;;;;27.60;22.43;;;;;;;;;;4980553;28;20229;-84
2022/11/29 07:50:42;;;;;;;27.23;23.93;;;;;;;;;;4958483;28;20326;-82
2022/11/29 07:53:19;;;;;;;27.17;22.67;;;;;;;;;;4941175;28;20226;-85
2022/11/29 07:55:57;;;;;;;27.80;24.33;;;;;;;;;;5000097;28;20251;-79
2022/11/29 07:58:28;;;;;;;27.37;22.73;;;;;;;;;;5004004;23;20312;-75
2022/11/29 08:00:53;;;;;;;28.43;23.20;;;;;;;;;;4980023;28;20229;-77
2022/11/29 08:03:21;;;;;;;30.63;24.30;;;;;;;;;;5000555;28;20218;-75
2022/11/29 08:05:51;;;;;;;25.57;22.77;;;;;;;;;;4979402;28;20233;-75
2022/11/29 08:08:16;;;;;;;29.30;23.63;;;;;;;;;;5000185;28;20636;-75
2022/11/29 08:10:48;;;;;;;28.57;23.33;;;;;;;;;;5014419;23;20244;-85
2022/11/29 08:13:16;;;;;;;26.33;23.47;;;;;;;;;;4980746;28;20256;-84
2022/11/29 08:15:46;;;;;;;26.30;23.40;;;;;;;;;;4969273;28;20239;-82
2022/11/29 08:18:14;;;;;;;26.80;23.70;;;;;;;;;;4981557;28;20255;-83
2022/11/29 08:20:40;;;;;;;30.73;24.57;;;;;;;;;;4982256;28;20228;-77
2022/11/29 08:23:06;;;;;;;33.20;23.23;;;;;;;;;;4980659;28;20225;-80
2022/11/29 08:25:32;;;;;;;28.87;24.33;;;;;;;;;;4981826;28;20594;-81
2022/11/29 08:27:57;;;;;;;34.37;23.90;;;;;;;;;;4962432;28;20231;-80
2022/11/29 08:30:23;;;;;;;31.80;24.87;;;;;;;;;;4989382;28;20590;-82
2022/11/29 08:32:49;;;;;;;31.03;23.67;;;;;;;;;;4953766;28;20233;-80
2022/11/29 08:35:16;;;;;;;27.60;23.60;;;;;;;;;;4977616;28;20216;-79
2022/11/29 08:37:50;;;;;;;31.37;25.07;;;;;;;;;;4977616;28;20259;-82
2022/11/29 08:40:16;;;;;;;30.97;24.97;;;;;;;;;;4955697;28;20741;-79
2022/11/29 08:42:41;;;;;;;30.10;25.13;;;;;;;;;;4994841;28;20229;-79
2022/11/29 08:45:09;;;;;;;28.97;24.73;;;;;;;;;;4981765;28;20232;-80
2022/11/29 08:47:36;;;;;;;34.30;24.40;;;;;;;;;;4978460;28;20228;-82
2022/11/29 08:50:10;;;;;;;28.93;23.67;;;;;;;;;;4977709;28;21609;-80
2022/11/29 08:55:41;;;;;;;32.37;26.13;;;;;;;;;;4977416;28;20217;-80
2022/11/29 08:58:11;;;;;;;33.47;27.27;;;;;;;;;;4973795;28;20256;-81
2022/11/29 09:00:37;;;;;;;27.47;23.97;;;;;;;;;;4987692;28;20227;-80
2022/11/29 09:05:48;;;;;;;30.23;25.20;;;;;;;;;;4990593;28;20235;-80
2022/11/29 09:08:13;;;;;;;33.07;26.00;;;;;;;;;;4963235;28;20874;-80
2022/11/29 09:10:39;;;;;;;32.93;25.43;;;;;;;;;;4964569;28;20245;-80
2022/11/29 09:13:06;;;;;;;30.03;26.07;;;;;;;;;;4992706;28;20288;-80
2022/11/29 09:15:38;;;;;;;31.30;26.33;;;;;;;;;;4969217;28;20216;-80
2022/11/29 09:18:04;;;;;;;31.17;25.53;;;;;;;;;;4984002;28;20237;-80
2022/11/29 09:20:30;;;;;;;30.13;26.23;;;;;;;;;;4970038;28;20271;-82
2022/11/29 09:22:59;;;;;;;32.97;26.87;;;;;;;;;;4961546;28;20434;-80
2022/11/29 09:25:27;;;;;;;31.50;27.53;;;;;;;;;;5002574;28;20216;-81
2022/11/29 09:27:52;;;;;;;33.97;26.50;;;;;;;;;;5001563;28;20233;-80
2022/11/29 09:30:20;;;;;;;30.83;26.73;;;;;;;;;;5002654;28;20765;-79
2022/11/29 09:32:46;;;;;;;31.07;26.73;;;;;;;;;;4994442;28;20248;-81
2022/11/29 09:35:11;;;;;;;33.50;26.60;;;;;;;;;;4969366;28;20228;-82
2022/11/29 09:37:41;;;;;;;29.80;26.53;;;;;;;;;;4993973;28;20286;-82
2022/11/29 09:40:11;;;;;;;33.83;27.93;;;;;;;;;;5000046;28;20245;-81
2022/11/29 09:42:59;;;;;;;37.60;25.63;;;;;;;;;;4989558;28;20217;-83
2022/11/29 09:45:30;;;;;;;29.70;26.63;;;;;;;;;;4969555;28;20705;-81
2022/11/29 09:48:13;;;;;;;31.00;26.63;;;;;;;;;;4961049;28;20689;-82
2022/11/29 09:50:44;;;;;;;33.53;25.83;;;;;;;;;;5018091;28;20614;-82
2022/11/29 09:53:17;;;;;;;33.70;26.87;;;;;;;;;;4984720;28;20248;-82
2022/11/29 09:55:51;;;;;;;30.77;25.90;;;;;;;;;;4990209;28;20277;-82
2022/11/29 09:58:19;;;;;;;29.80;26.23;;;;;;;;;;4987767;28;20233;-82
2022/11/29 10:00:55;;;;;;;31.27;27.17;;;;;;;;;;4998234;28;20243;-82
2022/11/29 10:03:30;;;;;;;31.97;26.93;;;;;;;;;;4987784;28;20244;-82
2022/11/29 10:05:59;;;;;;;35.10;26.73;;;;;;;;;;5008808;28;20293;-80
2022/11/29 10:08:34;;;;;;;30.43;26.17;;;;;;;;;;4991119;28;20311;-81
2022/11/29 10:11:22;;;;;;;34.03;27.83;;;;;;;;;;4975311;28;20229;-83
2022/11/29 10:13:50;;;;;;;31.13;26.97;;;;;;;;;;4981259;28;20240;-81
2022/11/29 10:16:31;;;;;;;33.57;26.93;;;;;;;;;;4982904;28;20474;-82
2022/11/29 10:19:11;;;;;;;32.53;26.07;;;;;;;;;;4997342;28;20233;-79
2022/11/29 10:21:40;;;;;;;32.30;27.23;;;;;;;;;;4962147;28;20287;-81
2022/11/29 10:24:16;;;;;;;31.63;25.40;;;;;;;;;;4965470;28;20244;-80
2022/11/29 10:26:44;;;;;;;32.83;26.97;;;;;;;;;;4975908;28;20232;-82
2022/11/29 10:29:12;;;;;;;34.17;26.63;;;;;;;;;;4970987;28;20258;-82
2022/11/29 10:31:42;;;;;;;35.27;27.40;;;;;;;;;;4978870;28;20241;-82
2022/11/29 10:34:18;;;;;;;34.77;26.23;;;;;;;;;;4958295;28;20230;-81
2022/11/29 10:36:51;;;;;;;35.20;27.00;;;;;;;;;;4968603;28;20233;-82
2022/11/29 10:39:22;;;;;;;29.00;25.83;;;;;;;;;;4976260;28;20220;-77
2022/11/29 10:41:50;;;;;;;31.23;26.30;;;;;;;;;;5009961;28;20237;-78
2022/11/29 10:44:19;;;;;;;28.70;25.73;;;;;;;;;;4971458;28;20224;-78
2022/11/29 10:46:46;;;;;;;28.43;25.40;;;;;;;;;;4977428;28;20236;-79
2022/11/29 10:49:13;;;;;;;28.80;25.67;;;;;;;;;;4991509;28;20521;-82
2022/11/29 10:51:39;;;;;;;29.07;26.03;;;;;;;;;;4970705;28;20231;-80
2022/11/29 10:54:39;;;;;;;31.20;26.40;;;;;;;;;;4969293;28;20244;-80
2022/11/29 10:57:13;;;;;;;32.10;26.63;;;;;;;;;;4980253;28;20238;-78
2022/11/29 10:59:38;;;;;;;29.57;25.20;;;;;;;;;;4979278;28;20228;-82
2022/11/29 11:02:16;;;;;;;30.73;26.10;;;;;;;;;;4973820;28;20232;-82
2022/11/29 11:04:44;;;;;;;33.50;25.57;;;;;;;;;;4971617;28;20325;-82
2022/11/29 11:07:28;;;;;;;29.17;26.07;;;;;;;;;;4969084;28;20248;-80
2022/11/29 11:09:59;;;;;;;32.90;26.23;;;;;;;;;;4998221;28;20282;-82
2022/11/29 11:12:31;;;;;;;32.83;26.13;;;;;;;;;;4977042;28;20233;-81
2022/11/29 11:15:30;;;;;;;29.03;25.97;;;;;;;;;;4963539;28;20279;-81
2022/11/29 11:17:59;;;;;;;33.70;26.80;;;;;;;;;;4984817;28;20277;-80
2022/11/29 11:20:26;;;;;;;28.53;25.50;;;;;;;;;;5006841;28;20220;-81
2022/11/29 11:23:25;;;;;;;34.07;26.50;;;;;;;;;;4968555;28;20217;-82
2022/11/29 11:26:07;;;;;;;27.87;24.77;;;;;;;;;;4984043;28;20227;-78
2022/11/29 11:28:42;;;;;;;29.97;24.60;;;;;;;;;;4993154;28;20441;-82
2022/11/29 11:31:11;;;;;;;35.57;26.43;;;;;;;;;;4983363;28;20839;-82
2022/11/29 11:33:38;;;;;;;28.90;25.60;;;;;;;;;;4990169;28;20234;-82
2022/11/29 11:36:10;;;;;;;30.87;24.63;;;;;;;;;;4981764;28;20232;-81
2022/11/29 11:38:49;;;;;;;28.07;25.13;;;;;;;;;;4961961;28;20650;-80
2022/11/29 11:41:16;;;;;;;26.23;23.53;;;;;;;;;;4989917;28;20217;-81
2022/11/29 11:43:48;;;;;;;26.93;24.03;;;;;;;;;;4983182;28;20252;-80
2022/11/29 11:46:13;;;;;;;28.93;25.63;;;;;;;;;;4994693;28;20255;-81
2022/11/29 11:48:39;;;;;;;29.80;25.13;;;;;;;;;;4983081;28;20229;-80
2022/11/29 11:51:10;;;;;;;27.27;24.40;;;;;;;;;;4991769;28;20231;-82
2022/11/29 11:53:35;;;;;;;30.70;26.07;;;;;;;;;;4973650;28;20233;-81
2022/11/29 11:56:05;;;;;;;32.77;26.67;;;;;;;;;;4968624;28;20235;-82
2022/11/29 11:58:43;;;;;;;32.87;25.07;;;;;;;;;;4957830;28;20213;-80
2022/11/29 12:01:11;;;;;;;29.00;24.70;;;;;;;;;;5017047;28;20236;-80
2022/11/29 12:04:01;;;;;;;30.93;24.93;;;;;;;;;;4990149;28;20415;-79
2022/11/29 12:06:51;;;;;;;30.23;25.30;;;;;;;;;;5001261;28;20227;-80
2022/11/29 12:09:45;;;;;;;29.13;25.83;;;;;;;;;;5013599;28;21025;-80
2022/11/29 12:12:23;;;;;;;28.73;25.60;;;;;;;;;;4970217;28;20239;-80
2022/11/29 12:14:55;;;;;;;28.43;25.43;;;;;;;;;;4986973;28;20249;-81
2022/11/29 12:17:42;;;;;;;28.37;25.37;;;;;;;;;;4980637;28;20248;-81
2022/11/29 12:20:27;;;;;;;29.80;25.80;;;;;;;;;;4994125;28;20228;-81
2022/11/29 12:22:54;;;;;;;26.97;24.00;;;;;;;;;;4973543;28;20241;-80
2022/11/29 12:25:25;;;;;;;28.70;25.57;;;;;;;;;;5012556;28;20228;-79
2022/11/29 12:27:50;;;;;;;31.50;24.83;;;;;;;;;;4987304;28;20228;-79
2022/11/29 12:30:17;;;;;;;28.83;24.63;;;;;;;;;;4969777;28;20237;-81
2022/11/29 12:33:21;;;;;;;27.00;24.07;;;;;;;;;;5012056;28;20217;-80
2022/11/29 12:35:52;;;;;;;28.10;24.97;;;;;;;;;;4973730;28;20229;-81
2022/11/29 12:38:31;;;;;;;29.77;24.73;;;;;;;;;;5001921;28;20233;-79
2022/11/29 12:41:12;;;;;;;26.30;22.77;;;;;;;;;;5003036;28;20228;-80
2022/11/29 12:43:46;;;;;;;27.37;24.17;;;;;;;;;;4999555;28;20224;-80
2022/11/29 12:46:17;;;;;;;29.30;23.43;;;;;;;;;;5003883;28;20215;-82
2022/11/29 12:48:52;;;;;;;26.57;23.70;;;;;;;;;;4985194;28;20296;-81
2022/11/29 12:51:32;;;;;;;28.50;24.40;;;;;;;;;;5003281;28;20296;-81
2022/11/29 12:54:28;;;;;;;26.20;23.33;;;;;;;;;;4974222;28;20236;-82
2022/11/29 12:56:59;;;;;;;25.90;22.90;;;;;;;;;;4979952;28;20279;-81
2022/11/29 12:59:37;;;;;;;26.60;23.90;;;;;;;;;;5002993;28;20228;-82
2022/11/29 13:02:27;;;;;;;29.27;24.03;;;;;;;;;;5001982;28;20312;-82
2022/11/29 13:05:10;;;;;;;29.23;24.40;;;;;;;;;;5018122;28;20224;-81
2022/11/29 13:07:41;;;;;;;25.37;22.67;;;;;;;;;;5008594;28;20278;-81
2022/11/29 13:10:25;;;;;;;26.67;23.90;;;;;;;;;;5008766;28;20294;-81
2022/11/29 13:13:02;;;;;;;25.53;22.80;;;;;;;;;;5020349;28;20634;-80
2022/11/29 13:15:30;;;;;;;28.93;23.30;;;;;;;;;;4990957;28;20224;-82
2022/11/29 13:18:03;;;;;;;25.53;22.77;;;;;;;;;;5019581;28;20324;-79
2022/11/29 13:20:32;;;;;;;26.43;23.63;;;;;;;;;;5011068;28;20205;-78
2022/11/29 13:23:09;;;;;;;26.13;23.37;;;;;;;;;;5029073;28;20256;-78
2022/11/29 13:25:42;;;;;;;27.43;23.30;;;;;;;;;;5020678;28;20300;-77
2022/11/29 13:28:34;;;;;;;30.70;24.10;;;;;;;;;;4988411;28;20244;-79
2022/11/29 13:31:01;;;;;;;25.97;23.17;;;;;;;;;;4997724;28;20225;-79
2022/11/29 13:33:51;;;;;;;26.60;23.90;;;;;;;;;;4968272;28;20245;-82
2022/11/29 13:36:29;;;;;;;30.90;23.03;;;;;;;;;;4984397;28;20230;-80
2022/11/29 13:39:10;;;;;;;27.93;24.63;;;;;;;;;;5000100;28;20224;-79
2022/11/29 13:42:02;;;;;;;26.17;23.50;;;;;;;;;;4994710;28;20626;-81
2022/11/29 13:44:53;;;;;;;30.80;24.00;;;;;;;;;;4986194;28;20758;-81
2022/11/29 13:47:19;;;;;;;27.17;24.17;;;;;;;;;;5004724;28;20743;-79
2022/11/29 13:49:50;;;;;;;25.73;23.03;;;;;;;;;;4968278;28;20225;-82
2022/11/29 13:52:31;;;;;;;26.30;23.50;;;;;;;;;;4985984;28;20582;-81
2022/11/29 13:55:13;;;;;;;26.73;23.90;;;;;;;;;;5001227;28;20656;-80
2022/11/29 13:57:53;;;;;;;27.03;23.83;;;;;;;;;;5001086;28;20601;-81
2022/11/29 14:00:41;;;;;;;25.63;22.90;;;;;;;;;;5000205;28;20248;-81
2022/11/29 14:03:18;;;;;;;26.20;23.10;;;;;;;;;;5017104;28;20225;-82
2022/11/29 14:05:47;;;;;;;27.47;24.47;;;;;;;;;;4993844;28;20254;-82
2022/11/29 14:08:25;;;;;;;29.77;24.23;;;;;;;;;;4955725;28;20285;-80
2022/11/29 14:10:55;;;;;;;26.93;24.20;;;;;;;;;;4977097;28;20228;-81
2022/11/29 14:13:27;;;;;;;33.43;27.50;;;;;;;;;;4958332;28;20717;-79
2022/11/29 14:15:57;;;;;;;43.83;34.90;;;;;;;;;;4966759;28;20229;-80
2022/11/29 14:18:46;;;;;;;32.63;29.40;;;;;;;;;;4971554;28;20689;-82
2022/11/29 14:21:12;;;;;;;30.97;24.73;;;;;;;;;;4995414;28;20752;-82
2022/11/29 14:23:41;;;;;;;28.70;24.30;;;;;;;;;;5000657;28;20225;-82
2022/11/29 14:26:07;;;;;;;27.13;24.30;;;;;;;;;;4970086;28;20245;-81
2022/11/29 14:28:37;;;;;;;28.60;25.50;;;;;;;;;;5018541;28;20225;-79
2022/11/29 14:31:04;;;;;;;29.63;25.03;;;;;;;;;;5010208;28;20771;-80
2022/11/29 14:33:50;;;;;;;28.83;24.20;;;;;;;;;;4999930;28;20234;-82
2022/11/29 14:36:48;;;;;;;27.60;24.03;;;;;;;;;;5005804;28;20292;-79
2022/11/29 14:39:48;;;;;;;26.97;23.97;;;;;;;;;;4987988;28;20335;-82
2022/11/29 14:42:20;;;;;;;28.87;24.73;;;;;;;;;;5007051;28;20608;-79
2022/11/29 14:44:49;;;;;;;34.53;25.10;;;;;;;;;;4991444;28;20229;-81
2022/11/29 14:47:18;;;;;;;27.07;23.30;;;;;;;;;;4967205;28;20236;-82
2022/11/29 14:49:45;;;;;;;26.40;23.20;;;;;;;;;;5018809;28;20267;-80
2022/11/29 14:52:13;;;;;;;26.17;23.50;;;;;;;;;;4996161;28;20228;-81
2022/11/29 14:54:54;;;;;;;28.77;24.63;;;;;;;;;;5000993;28;20241;-81
2022/11/29 14:57:41;;;;;;;28.47;24.73;;;;;;;;;;5012416;28;21281;-82
2022/11/29 15:00:10;;;;;;;27.23;24.40;;;;;;;;;;4997007;28;20529;-81
2022/11/29 15:02:54;;;;;;;26.77;23.97;;;;;;;;;;4966585;28;20229;-80
2022/11/29 15:05:35;;;;;;;27.63;24.77;;;;;;;;;;4998107;28;21000;-81
2022/11/29 15:08:39;;;;;;;26.27;23.57;;;;;;;;;;4982679;28;20319;-83
2022/11/29 15:11:36;;;;;;;27.17;24.33;;;;;;;;;;4994148;28;20262;-84